• Join FlightAware (Why Join?)
  • Login
  • US Flag 
10:44PM EST


 

Airport Tracker/Info


-or-


 

Live Flight TrackerFlight Track Log ✈ SWA2975 ✈ 01-Feb-2014 ✈ KSLC - KPDX

Flight Track Log - Related Links

Times and Time Zones

All times are in EST time to prevent confusion due to time zone crossing. See the SWA2975 flight status page for this flight to view local times or setup timezone preferences in your user account.

Time Position Orientation Groundspeed Altitude Reporting Facility
EST Latitude Longitude Course Direction KTS MPH feet Rate Location/Type
03:30PM 40.8353 -112.0489 311° West 247 284 7,900  Level Salt Lake Center
03:31PM 40.8525 -112.1022 293° West 237 273 9,900 2,220 Climbing Salt Lake Center
03:31PM 40.8650 -112.1353 297° West 277 319 10,200 1,920 Climbing Salt Lake Center
03:32PM 40.8889 -112.2033 295° West 309 356 11,900 3,360 Climbing Salt Lake Center
03:33PM 40.9533 -112.2892 315° West 330 380 16,300 4,140 Climbing Salt Lake Center
03:34PM 41.0250 -112.3694 320° Northwest 338 389 20,400 3,540 Climbing Salt Lake Center
03:35PM 41.0997 -112.4514 320° Northwest 347 399 23,600 2,880 Climbing Salt Lake Center
03:36PM 41.1858 -112.5256 327° Northwest 368 423 26,400 2,760 Climbing Salt Lake Center
03:37PM 41.2883 -112.6322 322° Northwest 388 447 29,300 2,400 Climbing Salt Lake Center
03:38PM 41.3642 -112.7458 312° West 411 473 31,400 1,260 Climbing Salt Lake Center
03:39PM 41.4406 -112.8583 312° West 410 472 32,000 780 Climbing Salt Lake Center
03:40PM 41.5139 -112.9731 311° West 408 470 33,100 1,620 Climbing Salt Lake Center
03:41PM 41.5850 -113.0850 310° West 400 460 35,400 1,800 Climbing Salt Lake Center
03:42PM 41.6617 -113.1981 312° West 407 468 36,800 1,440 Climbing Salt Lake Center
03:43PM 41.7361 -113.3136 311° West 411 473 38,400 1,440 Climbing Salt Lake Center
03:44PM 41.8100 -113.4286 311° West 408 470 39,800 780 Climbing Salt Lake Center
03:45PM 41.9003 -113.5689 311° West 414 476 40,000 60 Climbing Salt Lake Center
03:46PM 41.9744 -113.6839 311° West 410 472 40,000  Level Salt Lake Center
03:47PM 42.0475 -113.8003 310° West 408 470 40,000  Level Salt Lake Center
03:48PM 42.1225 -113.9167 311° West 410 472 40,000  Level Salt Lake Center
03:49PM 42.1975 -114.0325 311° West 412 474 40,000  Level Salt Lake Center
03:50PM 42.2711 -114.1503 310° West 410 472 40,000  Level Salt Lake Center
03:51PM 42.3450 -114.2711 310° West 412 474 40,000  Level Salt Lake Center
03:52PM 42.4181 -114.3908 310° West 409 471 40,000  Level Salt Lake Center
03:53PM 42.4925 -114.5092 310° West 412 474 40,000  Level Salt Lake Center
03:54PM 42.5825 -114.6475 311° West 409 471 40,000  Level Salt Lake Center
03:55PM 42.6522 -114.7575 311° West 416 479 40,000  Level Salt Lake Center
03:56PM 42.7272 -114.8739 311° West 411 473 40,000  Level Salt Lake Center
03:57PM 42.8028 -114.9906 311° West 411 473 40,000  Level Salt Lake Center
03:58PM 42.8772 -115.1086 311° West 409 471 40,000  Level Salt Lake Center
03:59PM 42.9658 -115.2481 311° West 407 468 40,000  Level Salt Lake Center
04:00PM 43.0389 -115.3664 310° West 408 470 40,000  Level Salt Lake Center
04:01PM 43.1122 -115.4831 311° West 405 466 40,000  Level Salt Lake Center
04:02PM 43.1847 -115.5997 310° West 402 463 40,000  Level Salt Lake Center
04:04PM 43.2567 -115.7156 310° West 400 460 40,000  Level Salt Lake Center
04:05PM 43.3278 -115.8311 310° West 398 458 40,000  Level Salt Lake Center
04:06PM 43.4003 -115.9467 311° West 398 458 40,000  Level Salt Lake Center
04:07PM 43.4728 -116.0633 311° West 401 461 40,000  Level Salt Lake Center
04:08PM 43.5444 -116.1811 310° West 401 461 40,000  Level Salt Lake Center
04:09PM 43.5944 -116.3206 296° West 407 468 40,000  Level Salt Lake Center
04:10PM 43.6511 -116.4889 295° West 403 464 40,000  Level Salt Lake Center
04:11PM 43.6964 -116.6311 294° West 403 464 40,000  Level Salt Lake Center
04:12PM 43.7428 -116.7736 294° West 404 465 40,000  Level Salt Lake Center
04:13PM 43.7906 -116.9158 295° West 408 470 40,000  Level Salt Lake Center
04:14PM 43.8364 -117.0567 294° West 402 463 40,000  Level Salt Lake Center
04:15PM 43.8817 -117.1994 294° West 405 466 40,000  Level Salt Lake Center
04:16PM 43.9261 -117.3408 294° West 402 463 40,000  Level Salt Lake Center
04:17PM 43.9711 -117.4817 294° West 400 460 40,000  Level Salt Lake Center
04:18PM 44.0167 -117.6244 294° West 403 464 40,000  Level Salt Lake Center
04:19PM 44.0611 -117.7661 294° West 401 461 40,000  Level Salt Lake Center
04:20PM 44.1144 -117.9369 294° West 401 461 40,000  Level Salt Lake Center
04:21PM 44.1586 -118.0786 294° West 399 459 40,000  Level Salt Lake Center
04:22PM 44.2031 -118.2208 294° West 400 460 40,000  Level Salt Lake Center
04:23PM 44.2469 -118.3656 293° West 404 465 40,000  Level Salt Lake Center
04:24PM 44.2794 -118.4669 294° West 404 465 40,000  Level Seattle Center
04:25PM 44.3236 -118.6111 293° West 404 465 40,000  Level Seattle Center
04:26PM 44.3844 -118.7431 303° West 405 466 40,000  Level Seattle Center
04:27PM 44.4444 -118.8756 302° West 406 467 40,000  Level Seattle Center
04:28PM 44.5044 -119.0081 302° West 404 465 40,000  Level Seattle Center
04:29PM 44.5636 -119.1408 302° West 403 464 40,000  Level Seattle Center
04:30PM 44.6228 -119.2731 302° West 402 463 40,000  Level Seattle Center
04:31PM 44.6819 -119.4047 302° West 400 460 40,000  Level Seattle Center
04:32PM 44.7408 -119.5372 302° West 400 460 40,000  Level Seattle Center
04:33PM 44.7994 -119.6717 302° West 402 463 40,000  Level Seattle Center
04:34PM 44.8572 -119.8039 302° West 399 459 40,000  Level Seattle Center
04:35PM 44.9186 -119.9475 301° West 400 460 40,000  Level Seattle Center
04:36PM 44.9792 -120.0831 302° West 404 465 40,000 -900 Level Seattle Center
04:37PM 45.0347 -120.2117 301° West 389 448 38,300 -2,220 Descending Seattle Center
04:38PM 45.0919 -120.3461 301° West 394 453 35,500 -3,000 Descending Seattle Center
04:39PM 45.1500 -120.4808 301° West 400 460 32,200 -2,940 Descending Seattle Center
04:40PM 45.2050 -120.6197 299° West 403 464 29,600 -2,580 Descending Seattle Center
04:41PM 45.2561 -120.7517 299° West 392 451 27,100 -2,400 Descending Seattle Center
04:42PM 45.3167 -120.9072 299° West 379 436 24,800 -1,620 Descending Seattle Center
04:43PM 45.3664 -121.0383 298° West 378 435 23,900 -900 Descending Seattle Center
04:44PM 45.4147 -121.1678 298° West 375 432 23,000 -1,620 Descending Seattle Center
04:45PM 45.4486 -121.3022 290° West 370 426 20,700 -2,160 Descending Seattle Center
04:46PM 45.4739 -121.4308 286° West 344 396 18,900 -1,920 Descending Seattle Center
04:46PM 45.4739 -121.4356 270° West 353 406 18,800 -1,740 Descending Seattle Center
04:47PM 45.4997 -121.5622 286° West 329 379 17,000 -1,980 Descending Seattle Center
04:48PM 45.5219 -121.6794 285° West 323 372 15,000 -2,040 Descending Seattle Center
04:48PM 45.5261 -121.6961 290° West 326 375 15,000  Level Seattle Center
04:49PM 45.5336 -121.8192 275° West 311 358 15,000  Level Seattle Center
04:49PM 45.5339 -121.8289 272° West 306 352 15,000 -420 Level Seattle Center
04:50PM 45.5381 -121.9381 273° West 302 348 14,600 -480 Descending Seattle Center
04:50PM 45.5372 -121.9389 215° Southwest 298 343 14,600 -1,680 Level Seattle Center
04:51PM 45.5583 -122.0494 285° West 288 331 12,900 -1,680 Descending Seattle Center
04:52PM 45.5789 -122.1500 286° West 285 328 11,400 -1,620 Descending Seattle Center
04:52PM 45.5808 -122.1583 288° West 288 331 11,300 -1,320 Descending Seattle Center
04:53PM 45.6003 -122.2556 286° West 280 322 10,100 -1,320 Descending Seattle Center
04:53PM 45.6025 -122.2633 292° West 278 320 10,000 -1,440 Descending Seattle Center
04:54PM 45.6208 -122.3553 286° West 260 299 8,700 -1,500 Descending Seattle Center
04:54PM 45.6239 -122.3694 287° West 261 300 8,500 -1,260 Descending Seattle Center
04:55PM 45.6439 -122.4647 287° West 253 291 7,300 -1,200 Descending Seattle Center
04:56PM 45.6722 -122.5442 297° West 238 274 6,200 -1,140 Descending Seattle Center
04:56PM 45.6736 -122.5489 293° West 240 276 6,200 -720 Level Seattle Center
04:57PM 45.6969 -122.6239 294° West 223 257 5,500 -840 Descending Seattle Center
04:57PM 45.6981 -122.6306 283° West 225 259 5,400 -1,080 Descending Seattle Center
04:58PM 45.7197 -122.7194 289° West 222 255 4,300 -1,200 Descending Seattle Center
04:59PM 45.7153 -122.7925 265° West 212 244 3,000 -900 Descending Seattle Center
05:00PM 45.6703 -122.7831 172° South 165 190 2,500 -540 Descending Seattle Center
05:00PM 45.6708 -122.7817 60° Northeast 171 197 2,500 -600 Level Seattle Center
05:01PM 45.6436 -122.7475 139° Southeast 134 154 2,000 -540 Descending Seattle Center
05:01PM 45.6419 -122.7436 122° Southeast 147 169 2,000 -600 Level Seattle Center
05:02PM 45.6258 -122.7022 119° Southeast 123 142 1,400 -720 Descending Seattle Center
05:02PM 45.6250 -122.6983 107° East 129 148 1,300 -720 Descending Seattle Center
05:03PM 45.6075 -122.6542 120° Southeast 125 144 600 -720 Descending Seattle Center
05:03PM 45.6078 -122.6547 306° West 127 146 600  Level Seattle Center